sensor_id;sensor_type;location;lat;lon;timestamp;pressure;altitude;pressure_sealevel;temperature;humidity
12785;BME280;6456;42.680;23.260;2023-01-05T00:01:46;95438.28;;;7.25;100.00
12785;BME280;6456;42.680;23.260;2023-01-05T00:04:14;95439.53;;;7.29;100.00
12785;BME280;6456;42.680;23.260;2023-01-05T00:06:41;95477.94;;;7.45;100.00
12785;BME280;6456;42.680;23.260;2023-01-05T00:09:10;95426.88;;;7.18;100.00
12785;BME280;6456;42.680;23.260;2023-01-05T00:11:39;95480.97;;;7.56;100.00
12785;BME280;6456;42.680;23.260;2023-01-05T00:14:24;95498.16;;;7.82;100.00
12785;BME280;6456;42.680;23.260;2023-01-05T00:17:10;95452.84;;;7.50;100.00
12785;BME280;6456;42.680;23.260;2023-01-05T00:19:58;95473.19;;;7.71;100.00
12785;BME280;6456;42.680;23.260;2023-01-05T00:22:45;95425.31;;;7.54;100.00
12785;BME280;6456;42.680;23.260;2023-01-05T00:25:14;95410.66;;;7.45;100.00
12785;BME280;6456;42.680;23.260;2023-01-05T00:27:44;95404.78;;;7.43;100.00
12785;BME280;6456;42.680;23.260;2023-01-05T00:30:15;95443.44;;;7.64;100.00
12785;BME280;6456;42.680;23.260;2023-01-05T00:32:42;95392.16;;;7.47;100.00
12785;BME280;6456;42.680;23.260;2023-01-05T00:35:10;95418.53;;;7.68;100.00
12785;BME280;6456;42.680;23.260;2023-01-05T00:37:38;95398.97;;;7.56;100.00
12785;BME280;6456;42.680;23.260;2023-01-05T00:40:08;95398.97;;;7.56;100.00
12785;BME280;6456;42.680;23.260;2023-01-05T00:42:36;95385.44;;;7.44;100.00
12785;BME280;6456;42.680;23.260;2023-01-05T00:45:05;95430.78;;;7.67;100.00
12785;BME280;6456;42.680;23.260;2023-01-05T00:47:33;95463.22;;;7.89;100.00
12785;BME280;6456;42.680;23.260;2023-01-05T00:50:00;95380.16;;;7.30;100.00
12785;BME280;6456;42.680;23.260;2023-01-05T00:52:27;95377.09;;;7.26;100.00
12785;BME280;6456;42.680;23.260;2023-01-05T00:54:53;95416.56;;;7.39;100.00
12785;BME280;6456;42.680;23.260;2023-01-05T00:57:20;95431.31;;;7.40;100.00
12785;BME280;6456;42.680;23.260;2023-01-05T00:59:47;95430.38;;;7.33;100.00
12785;BME280;6456;42.680;23.260;2023-01-05T01:02:16;95356.91;;;7.04;100.00
12785;BME280;6456;42.680;23.260;2023-01-05T01:04:43;95453.56;;;7.67;100.00
12785;BME280;6456;42.680;23.260;2023-01-05T01:07:09;95451.75;;;7.67;100.00
12785;BME280;6456;42.680;23.260;2023-01-05T01:09:37;95463.94;;;7.83;100.00
12785;BME280;6456;42.680;23.260;2023-01-05T01:12:05;95411.19;;;7.41;100.00
12785;BME280;6456;42.680;23.260;2023-01-05T01:14:32;95459.50;;;7.84;100.00
12785;BME280;6456;42.680;23.260;2023-01-05T01:16:58;95454.91;;;7.86;100.00
12785;BME280;6456;42.680;23.260;2023-01-05T01:19:30;95444.44;;;7.86;100.00
12785;BME280;6456;42.680;23.260;2023-01-05T01:21:57;95394.19;;;7.59;100.00
12785;BME280;6456;42.680;23.260;2023-01-05T01:24:25;95383.06;;;7.57;100.00
12785;BME280;6456;42.680;23.260;2023-01-05T01:26:53;95413.38;;;7.74;100.00
12785;BME280;6456;42.680;23.260;2023-01-05T01:29:21;95390.19;;;7.71;100.00
12785;BME280;6456;42.680;23.260;2023-01-05T01:31:50;95378.59;;;7.66;100.00
12785;BME280;6456;42.680;23.260;2023-01-05T01:34:17;95367.34;;;7.57;100.00
12785;BME280;6456;42.680;23.260;2023-01-05T01:36:46;95311.00;;;7.24;100.00
12785;BME280;6456;42.680;23.260;2023-01-05T01:39:14;95351.31;;;7.60;100.00
12785;BME280;6456;42.680;23.260;2023-01-05T01:41:41;95388.78;;;7.84;100.00
12785;BME280;6456;42.680;23.260;2023-01-05T04:27:02;95249.75;;;5.41;100.00
12785;BME280;6456;42.680;23.260;2023-01-05T04:29:29;95203.09;;;5.30;100.00
12785;BME280;6456;42.680;23.260;2023-01-05T04:31:56;95250.31;;;5.67;100.00
12785;BME280;6456;42.680;23.260;2023-01-05T04:34:23;95195.88;;;5.56;100.00
12785;BME280;6456;42.680;23.260;2023-01-05T04:36:50;95231.66;;;5.94;100.00
12785;BME280;6456;42.680;23.260;2023-01-05T04:39:20;95211.72;;;6.01;100.00
12785;BME280;6456;42.680;23.260;2023-01-05T04:41:47;95242.06;;;6.10;100.00
12785;BME280;6456;42.680;23.260;2023-01-05T04:44:16;95217.41;;;6.05;100.00
12785;BME280;6456;42.680;23.260;2023-01-05T04:46:43;95244.88;;;6.31;100.00
12785;BME280;6456;42.680;23.260;2023-01-05T04:49:10;95266.53;;;6.48;100.00
12785;BME280;6456;42.680;23.260;2023-01-05T04:51:37;95285.88;;;6.62;100.00
12785;BME280;6456;42.680;23.260;2023-01-05T04:54:06;95208.38;;;6.15;100.00
12785;BME280;6456;42.680;23.260;2023-01-05T04:56:33;95241.50;;;6.23;100.00
12785;BME280;6456;42.680;23.260;2023-01-05T04:59:00;95290.16;;;6.63;100.00
12785;BME280;6456;42.680;23.260;2023-01-05T05:01:32;95236.09;;;6.24;100.00
12785;BME280;6456;42.680;23.260;2023-01-05T05:03:59;95292.13;;;6.61;100.00
12785;BME280;6456;42.680;23.260;2023-01-05T05:06:26;95250.78;;;6.33;100.00
12785;BME280;6456;42.680;23.260;2023-01-05T05:08:53;95268.03;;;6.42;100.00
12785;BME280;6456;42.680;23.260;2023-01-05T05:11:19;95298.78;;;6.71;100.00
12785;BME280;6456;42.680;23.260;2023-01-05T05:13:46;95222.03;;;6.33;100.00
12785;BME280;6456;42.680;23.260;2023-01-05T05:16:13;95301.47;;;6.86;100.00
12785;BME280;6456;42.680;23.260;2023-01-05T05:18:42;95252.91;;;6.61;100.00
12785;BME280;6456;42.680;23.260;2023-01-05T05:21:09;95288.72;;;6.83;100.00
12785;BME280;6456;42.680;23.260;2023-01-05T05:23:36;95275.06;;;6.73;100.00
12785;BME280;6456;42.680;23.260;2023-01-05T05:26:03;95285.81;;;6.78;100.00
12785;BME280;6456;42.680;23.260;2023-01-05T05:28:30;95267.59;;;6.62;100.00
12785;BME280;6456;42.680;23.260;2023-01-05T05:30:56;95241.81;;;6.59;100.00
12785;BME280;6456;42.680;23.260;2023-01-05T05:33:24;95287.38;;;6.87;100.00
12785;BME280;6456;42.680;23.260;2023-01-05T05:35:52;95260.19;;;6.73;100.00
12785;BME280;6456;42.680;23.260;2023-01-05T05:38:19;95285.25;;;6.90;100.00
12785;BME280;6456;42.680;23.260;2023-01-05T05:40:47;95256.09;;;6.71;100.00
12785;BME280;6456;42.680;23.260;2023-01-05T05:43:14;95279.06;;;6.83;100.00
12785;BME280;6456;42.680;23.260;2023-01-05T05:45:41;95246.28;;;6.73;100.00
12785;BME280;6456;42.680;23.260;2023-01-05T05:48:08;95264.84;;;6.86;100.00
12785;BME280;6456;42.680;23.260;2023-01-05T05:50:35;95258.97;;;6.84;100.00
12785;BME280;6456;42.680;23.260;2023-01-05T05:53:03;95255.06;;;6.80;100.00
12785;BME280;6456;42.680;23.260;2023-01-05T05:55:30;95201.00;;;6.50;100.00
12785;BME280;6456;42.680;23.260;2023-01-05T05:57:57;95246.56;;;6.78;100.00
12785;BME280;6456;42.680;23.260;2023-01-05T06:00:24;95198.41;;;6.41;100.00
12785;BME280;6456;42.680;23.260;2023-01-05T06:02:51;95214.25;;;6.48;100.00
12785;BME280;6456;42.680;23.260;2023-01-05T06:05:18;95252.03;;;6.68;100.00
12785;BME280;6456;42.680;23.260;2023-01-05T06:07:45;95236.22;;;6.62;100.00
12785;BME280;6456;42.680;23.260;2023-01-05T06:10:13;95238.53;;;6.57;100.00
12785;BME280;6456;42.680;23.260;2023-01-05T06:12:40;95247.38;;;6.56;100.00
12785;BME280;6456;42.680;23.260;2023-01-05T06:15:08;95235.63;;;6.52;100.00
12785;BME280;6456;42.680;23.260;2023-01-05T06:17:35;95235.31;;;6.46;100.00
12785;BME280;6456;42.680;23.260;2023-01-05T06:20:03;95224.94;;;6.38;100.00
12785;BME280;6456;42.680;23.260;2023-01-05T06:22:30;95177.66;;;6.17;100.00
12785;BME280;6456;42.680;23.260;2023-01-05T06:24:58;95184.88;;;6.15;100.00
12785;BME280;6456;42.680;23.260;2023-01-05T06:27:26;95230.56;;;6.50;100.00
12785;BME280;6456;42.680;23.260;2023-01-05T06:29:53;95210.25;;;6.29;100.00
12785;BME280;6456;42.680;23.260;2023-01-05T06:32:20;95221.31;;;6.39;100.00
12785;BME280;6456;42.680;23.260;2023-01-05T06:34:46;95226.16;;;6.51;100.00
12785;BME280;6456;42.680;23.260;2023-01-05T06:37:13;95212.28;;;6.50;100.00
12785;BME280;6456;42.680;23.260;2023-01-05T06:39:40;95231.97;;;6.61;100.00
12785;BME280;6456;42.680;23.260;2023-01-05T06:42:07;95199.13;;;6.35;100.00
12785;BME280;6456;42.680;23.260;2023-01-05T06:44:36;95231.19;;;6.52;100.00
12785;BME280;6456;42.680;23.260;2023-01-05T06:47:03;95169.22;;;6.07;100.00
12785;BME280;6456;42.680;23.260;2023-01-05T06:49:32;95193.88;;;6.13;100.00
12785;BME280;6456;42.680;23.260;2023-01-05T06:51:59;95229.25;;;6.23;100.00
12785;BME280;6456;42.680;23.260;2023-01-05T06:54:29;95194.09;;;6.03;100.00
12785;BME280;6456;42.680;23.260;2023-01-05T06:56:56;95207.91;;;6.12;100.00
12785;BME280;6456;42.680;23.260;2023-01-05T06:59:23;95237.34;;;6.36;100.00
12785;BME280;6456;42.680;23.260;2023-01-05T07:01:51;95164.88;;;6.00;100.00
12785;BME280;6456;42.680;23.260;2023-01-05T07:04:20;95204.69;;;6.32;100.00
12785;BME280;6456;42.680;23.260;2023-01-05T07:06:47;95184.31;;;6.28;100.00
12785;BME280;6456;42.680;23.260;2023-01-05T07:09:17;95198.94;;;6.37;100.00
12785;BME280;6456;42.680;23.260;2023-01-05T07:11:43;95219.63;;;6.46;100.00
12785;BME280;6456;42.680;23.260;2023-01-05T07:14:13;95148.00;;;6.10;100.00
12785;BME280;6456;42.680;23.260;2023-01-05T07:16:40;95223.72;;;6.72;100.00
12785;BME280;6456;42.680;23.260;2023-01-05T07:19:09;95214.31;;;6.63;100.00
12785;BME280;6456;42.680;23.260;2023-01-05T07:21:49;95167.06;;;6.41;100.00
12785;BME280;6456;42.680;23.260;2023-01-05T07:24:16;95223.31;;;6.83;100.00
12785;BME280;6456;42.680;23.260;2023-01-05T07:26:45;95222.97;;;6.86;100.00
12785;BME280;6456;42.680;23.260;2023-01-05T07:29:12;95212.44;;;6.94;100.00
12785;BME280;6456;42.680;23.260;2023-01-05T07:31:41;95194.91;;;6.80;100.00
12785;BME280;6456;42.680;23.260;2023-01-05T07:34:11;95168.31;;;6.76;100.00
12785;BME280;6456;42.680;23.260;2023-01-05T07:36:38;95200.41;;;7.07;100.00
12785;BME280;6456;42.680;23.260;2023-01-05T07:39:09;95179.72;;;6.98;100.00
12785;BME280;6456;42.680;23.260;2023-01-05T07:41:38;95124.78;;;6.61;100.00
12785;BME280;6456;42.680;23.260;2023-01-05T07:44:05;95079.81;;;6.42;100.00
12785;BME280;6456;42.680;23.260;2023-01-05T07:46:32;95192.91;;;7.19;100.00
12785;BME280;6456;42.680;23.260;2023-01-05T07:49:02;95137.19;;;6.81;100.00
12785;BME280;6456;42.680;23.260;2023-01-05T07:51:30;95130.22;;;6.74;100.00
12785;BME280;6456;42.680;23.260;2023-01-05T07:54:00;95174.13;;;7.01;100.00
12785;BME280;6456;42.680;23.260;2023-01-05T07:56:27;95164.31;;;7.03;100.00
12785;BME280;6456;42.680;23.260;2023-01-05T07:58:53;95165.00;;;6.97;100.00
12785;BME280;6456;42.680;23.260;2023-01-05T08:01:20;95110.56;;;6.78;100.00
12785;BME280;6456;42.680;23.260;2023-01-05T08:03:47;95190.22;;;7.27;100.00
12785;BME280;6456;42.680;23.260;2023-01-05T08:06:16;95122.03;;;6.91;100.00
12785;BME280;6456;42.680;23.260;2023-01-05T08:08:45;95062.22;;;6.36;100.00
12785;BME280;6456;42.680;23.260;2023-01-05T08:11:14;95108.94;;;6.77;100.00
12785;BME280;6456;42.680;23.260;2023-01-05T08:13:41;95135.94;;;7.06;100.00
12785;BME280;6456;42.680;23.260;2023-01-05T08:16:28;95112.25;;;7.08;100.00
12785;BME280;6456;42.680;23.260;2023-01-05T08:18:56;95123.81;;;7.28;100.00
12785;BME280;6456;42.680;23.260;2023-01-05T08:21:23;95161.91;;;7.60;100.00
12785;BME280;6456;42.680;23.260;2023-01-05T08:23:51;95117.13;;;7.40;100.00
12785;BME280;6456;42.680;23.260;2023-01-05T08:26:20;95054.22;;;7.04;100.00
12785;BME280;6456;42.680;23.260;2023-01-05T08:28:48;95064.59;;;7.13;100.00
12785;BME280;6456;42.680;23.260;2023-01-05T08:31:17;95115.13;;;7.42;100.00
12785;BME280;6456;42.680;23.260;2023-01-05T08:33:44;95134.13;;;7.59;100.00
12785;BME280;6456;42.680;23.260;2023-01-05T08:36:13;95182.59;;;7.99;100.00
12785;BME280;6456;42.680;23.260;2023-01-05T08:38:40;95175.50;;;7.99;100.00
12785;BME280;6456;42.680;23.260;2023-01-05T08:41:16;95164.34;;;7.91;100.00
12785;BME280;6456;42.680;23.260;2023-01-05T08:43:48;95121.72;;;7.67;100.00
12785;BME280;6456;42.680;23.260;2023-01-05T08:46:16;95174.59;;;8.07;100.00
12785;BME280;6456;42.680;23.260;2023-01-05T08:48:47;95170.38;;;8.06;100.00
12785;BME280;6456;42.680;23.260;2023-01-05T08:51:14;95125.84;;;7.91;100.00
12785;BME280;6456;42.680;23.260;2023-01-05T08:53:43;95047.22;;;7.55;100.00
12785;BME280;6456;42.680;23.260;2023-01-05T08:56:10;95040.63;;;7.59;100.00
12785;BME280;6456;42.680;23.260;2023-01-05T08:58:39;95098.84;;;8.12;100.00
12785;BME280;6456;42.680;23.260;2023-01-05T09:01:06;95146.59;;;8.64;100.00
12785;BME280;6456;42.680;23.260;2023-01-05T09:03:33;95144.72;;;8.79;100.00
12785;BME280;6456;42.680;23.260;2023-01-05T09:06:00;95019.84;;;8.15;100.00
12785;BME280;6456;42.680;23.260;2023-01-05T09:08:28;95077.75;;;8.56;100.00
12785;BME280;6456;42.680;23.260;2023-01-05T09:11:04;95083.16;;;8.75;100.00
12785;BME280;6456;42.680;23.260;2023-01-05T09:13:35;95116.75;;;8.86;100.00
12785;BME280;6456;42.680;23.260;2023-01-05T09:16:10;95100.06;;;8.94;100.00
12785;BME280;6456;42.680;23.260;2023-01-05T09:18:39;95062.59;;;8.79;100.00
12785;BME280;6456;42.680;23.260;2023-01-05T09:21:06;95096.59;;;9.21;100.00
12785;BME280;6456;42.680;23.260;2023-01-05T09:23:33;95062.25;;;9.16;100.00
12785;BME280;6456;42.680;23.260;2023-01-05T09:26:02;95071.56;;;9.25;100.00
12785;BME280;6456;42.680;23.260;2023-01-05T09:28:29;95013.38;;;8.87;100.00
12785;BME280;6456;42.680;23.260;2023-01-05T09:30:56;95072.19;;;9.27;100.00
12785;BME280;6456;42.680;23.260;2023-01-05T09:33:24;95051.97;;;9.21;100.00
12785;BME280;6456;42.680;23.260;2023-01-05T09:35:55;95059.06;;;9.27;100.00
12785;BME280;6456;42.680;23.260;2023-01-05T09:38:23;95063.56;;;9.33;100.00
12785;BME280;6456;42.680;23.260;2023-01-05T09:40:51;95062.56;;;9.34;100.00
12785;BME280;6456;42.680;23.260;2023-01-05T09:43:21;94944.91;;;8.76;100.00
12785;BME280;6456;42.680;23.260;2023-01-05T09:45:51;94950.03;;;8.90;100.00
12785;BME280;6456;42.680;23.260;2023-01-05T09:48:19;95026.41;;;9.43;100.00
12785;BME280;6456;42.680;23.260;2023-01-05T09:50:51;95023.78;;;9.43;100.00
12785;BME280;6456;42.680;23.260;2023-01-05T09:53:22;94967.66;;;9.03;100.00
12785;BME280;6456;42.680;23.260;2023-01-05T09:55:51;95003.59;;;9.43;100.00
12785;BME280;6456;42.680;23.260;2023-01-05T09:58:22;94948.91;;;9.13;100.00
12785;BME280;6456;42.680;23.260;2023-01-05T10:01:05;94989.66;;;9.43;100.00
12785;BME280;6456;42.680;23.260;2023-01-05T10:03:35;94910.88;;;8.89;100.00
12785;BME280;6456;42.680;23.260;2023-01-05T10:06:11;95004.00;;;9.47;100.00
12785;BME280;6456;42.680;23.260;2023-01-05T10:08:42;94931.72;;;9.03;100.00
12785;BME280;6456;42.680;23.260;2023-01-05T10:11:13;95005.31;;;9.64;100.00
12785;BME280;6456;42.680;23.260;2023-01-05T10:14:01;94877.13;;;8.86;100.00
12785;BME280;6456;42.680;23.260;2023-01-05T10:16:31;94906.69;;;9.08;100.00
12785;BME280;6456;42.680;23.260;2023-01-05T10:18:58;94973.13;;;9.49;100.00
12785;BME280;6456;42.680;23.260;2023-01-05T10:21:37;94935.63;;;9.21;100.00
12785;BME280;6456;42.680;23.260;2023-01-05T10:24:18;94940.94;;;9.34;100.00
12785;BME280;6456;42.680;23.260;2023-01-05T10:26:51;94924.38;;;9.40;100.00
12785;BME280;6456;42.680;23.260;2023-01-05T10:29:28;94881.06;;;9.10;100.00
12785;BME280;6456;42.680;23.260;2023-01-05T10:32:05;94985.16;;;9.97;100.00
12785;BME280;6456;42.680;23.260;2023-01-05T10:34:46;94923.84;;;9.71;100.00
12785;BME280;6456;42.680;23.260;2023-01-05T10:37:31;94919.81;;;9.61;100.00
12785;BME280;6456;42.680;23.260;2023-01-05T10:40:15;94980.75;;;10.17;100.00
12785;BME280;6456;42.680;23.260;2023-01-05T10:42:56;94973.72;;;10.24;99.73
12785;BME280;6456;42.680;23.260;2023-01-05T10:45:28;94947.41;;;10.24;98.76
12785;BME280;6456;42.680;23.260;2023-01-05T10:47:57;94851.31;;;9.76;98.07
12785;BME280;6456;42.680;23.260;2023-01-05T10:50:33;94885.50;;;10.15;95.91
12785;BME280;6456;42.680;23.260;2023-01-05T10:53:08;94882.25;;;10.20;95.75
12785;BME280;6456;42.680;23.260;2023-01-05T10:55:42;94946.16;;;10.60;95.70
12785;BME280;6456;42.680;23.260;2023-01-05T10:58:24;94913.97;;;10.58;95.61
12785;BME280;6456;42.680;23.260;2023-01-05T11:00:57;94912.75;;;10.67;94.16
12785;BME280;6456;42.680;23.260;2023-01-05T11:03:34;94933.56;;;10.81;92.40
12785;BME280;6456;42.680;23.260;2023-01-05T11:06:02;94927.31;;;10.76;92.66
12785;BME280;6456;42.680;23.260;2023-01-05T11:08:31;94905.25;;;10.70;92.64
12785;BME280;6456;42.680;23.260;2023-01-05T11:11:00;94929.25;;;11.00;91.94
12785;BME280;6456;42.680;23.260;2023-01-05T11:13:31;94811.00;;;10.35;91.58
12785;BME280;6456;42.680;23.260;2023-01-05T11:16:10;94889.63;;;10.88;90.57
12785;BME280;6456;42.680;23.260;2023-01-05T11:18:45;94917.44;;;11.22;89.82
12785;BME280;6456;42.680;23.260;2023-01-05T11:21:15;94868.28;;;11.03;89.36
12785;BME280;6456;42.680;23.260;2023-01-05T11:23:45;94843.44;;;10.86;88.16
12785;BME280;6456;42.680;23.260;2023-01-05T11:26:27;94852.31;;;11.05;87.99
12785;BME280;6456;42.680;23.260;2023-01-05T11:29:12;94902.56;;;11.41;86.78
12785;BME280;6456;42.680;23.260;2023-01-05T11:31:43;94859.16;;;11.12;87.63
12785;BME280;6456;42.680;23.260;2023-01-05T11:34:16;94907.13;;;11.58;87.45
12785;BME280;6456;42.680;23.260;2023-01-05T11:36:52;94858.94;;;11.45;86.89
12785;BME280;6456;42.680;23.260;2023-01-05T11:39:26;94847.19;;;11.47;86.81
12785;BME280;6456;42.680;23.260;2023-01-05T11:42:12;94899.06;;;11.91;86.09
12785;BME280;6456;42.680;23.260;2023-01-05T11:44:42;94901.78;;;12.03;85.41
12785;BME280;6456;42.680;23.260;2023-01-05T11:47:19;94864.66;;;11.80;83.92
12785;BME280;6456;42.680;23.260;2023-01-05T11:49:48;94890.28;;;11.97;84.62
12785;BME280;6456;42.680;23.260;2023-01-05T11:52:26;94890.28;;;11.97;83.78
12785;BME280;6456;42.680;23.260;2023-01-05T11:54:55;94836.94;;;11.71;82.74
12785;BME280;6456;42.680;23.260;2023-01-05T11:57:22;94879.94;;;12.20;82.32
12785;BME280;6456;42.680;23.260;2023-01-05T11:59:49;94828.88;;;11.90;82.78
12785;BME280;6456;42.680;23.260;2023-01-05T12:05:23;94885.97;;;12.52;78.85
12785;BME280;6456;42.680;23.260;2023-01-05T12:07:55;94872.13;;;12.57;75.36
12785;BME280;6456;42.680;23.260;2023-01-05T12:10:53;94888.91;;;12.62;74.18
12785;BME280;6456;42.680;23.260;2023-01-05T12:13:45;94835.06;;;12.45;73.83
12785;BME280;6456;42.680;23.260;2023-01-05T12:16:25;94847.97;;;12.53;74.42
12785;BME280;6456;42.680;23.260;2023-01-05T12:22:24;94773.53;;;12.08;71.95
12785;BME280;6456;42.680;23.260;2023-01-05T12:25:17;94840.63;;;12.55;71.98
12785;BME280;6456;42.680;23.260;2023-01-05T12:28:11;94824.38;;;12.58;73.70
12785;BME280;6456;42.680;23.260;2023-01-05T12:30:46;94725.69;;;12.05;73.30
12785;BME280;6456;42.680;23.260;2023-01-05T12:33:48;94813.09;;;12.69;73.72
12785;BME280;6456;42.680;23.260;2023-01-05T12:36:25;94797.09;;;12.64;72.69
12785;BME280;6456;42.680;23.260;2023-01-05T12:39:04;94737.88;;;12.24;72.54
12785;BME280;6456;42.680;23.260;2023-01-05T12:41:58;94724.22;;;12.09;72.74
12785;BME280;6456;42.680;23.260;2023-01-05T12:44:53;94813.47;;;12.55;72.97
12785;BME280;6456;42.680;23.260;2023-01-05T12:47:46;94807.00;;;12.51;73.07
12785;BME280;6456;42.680;23.260;2023-01-05T12:50:22;94806.25;;;12.44;72.17
12785;BME280;6456;42.680;23.260;2023-01-05T12:52:54;94812.34;;;12.44;72.93
12785;BME280;6456;42.680;23.260;2023-01-05T12:55:26;94778.47;;;12.23;73.66
12785;BME280;6456;42.680;23.260;2023-01-05T12:57:58;94806.91;;;12.39;74.07
12785;BME280;6456;42.680;23.260;2023-01-05T13:00:32;94736.09;;;12.00;71.40
12785;BME280;6456;42.680;23.260;2023-01-05T13:03:01;94779.19;;;12.30;71.60
12785;BME280;6456;42.680;23.260;2023-01-05T13:05:33;94825.75;;;12.61;72.99
12785;BME280;6456;42.680;23.260;2023-01-05T13:08:06;94805.28;;;12.38;71.84
12785;BME280;6456;42.680;23.260;2023-01-05T13:10:44;94790.03;;;12.40;72.09
12785;BME280;6456;42.680;23.260;2023-01-05T13:13:15;94807.53;;;12.59;71.77
12785;BME280;6456;42.680;23.260;2023-01-05T13:16:01;94727.56;;;11.98;72.92
12785;BME280;6456;42.680;23.260;2023-01-05T13:18:34;94826.50;;;12.50;74.53
12785;BME280;6456;42.680;23.260;2023-01-05T13:21:03;94774.97;;;12.29;72.40
12785;BME280;6456;42.680;23.260;2023-01-05T13:23:33;94807.22;;;12.49;72.77
12785;BME280;6456;42.680;23.260;2023-01-05T13:26:04;94737.84;;;12.06;71.10
12785;BME280;6456;42.680;23.260;2023-01-05T13:28:32;94752.97;;;12.17;71.31
12785;BME280;6456;42.680;23.260;2023-01-05T13:31:27;94792.63;;;12.47;72.54
12785;BME280;6456;42.680;23.260;2023-01-05T13:37:05;94821.75;;;12.76;72.06
12785;BME280;6456;42.680;23.260;2023-01-05T13:42:52;94807.06;;;12.80;71.96
12785;BME280;6456;42.680;23.260;2023-01-05T13:45:55;94803.41;;;12.81;71.06
12785;BME280;6456;42.680;23.260;2023-01-05T13:48:44;94776.72;;;12.71;70.38
12785;BME280;6456;42.680;23.260;2023-01-05T13:51:34;94731.03;;;12.53;70.06
12785;BME280;6456;42.680;23.260;2023-01-05T13:54:08;94756.03;;;12.68;69.65
12785;BME280;6456;42.680;23.260;2023-01-05T13:56:38;94790.72;;;12.90;69.54
12785;BME280;6456;42.680;23.260;2023-01-05T13:59:07;94783.13;;;12.94;70.04
12785;BME280;6456;42.680;23.260;2023-01-05T14:01:42;94780.16;;;12.90;69.53
12785;BME280;6456;42.680;23.260;2023-01-05T14:04:17;94769.66;;;12.83;69.83
12785;BME280;6456;42.680;23.260;2023-01-05T14:06:47;94709.34;;;12.51;69.75
12785;BME280;6456;42.680;23.260;2023-01-05T14:09:19;94784.16;;;12.93;68.98
12785;BME280;6456;42.680;23.260;2023-01-05T14:14:59;94727.47;;;12.47;69.33
12785;BME280;6456;42.680;23.260;2023-01-05T14:17:50;94784.34;;;12.79;68.98
12785;BME280;6456;42.680;23.260;2023-01-05T14:20:34;94785.34;;;12.78;69.85
12785;BME280;6456;42.680;23.260;2023-01-05T14:23:03;94782.00;;;12.71;69.70
12785;BME280;6456;42.680;23.260;2023-01-05T14:25:51;94737.13;;;12.35;70.55
12785;BME280;6456;42.680;23.260;2023-01-05T14:34:14;94782.13;;;12.58;69.83
12785;BME280;6456;42.680;23.260;2023-01-05T14:36:46;94773.25;;;12.53;69.83
12785;BME280;6456;42.680;23.260;2023-01-05T14:39:25;94723.50;;;12.20;70.17
12785;BME280;6456;42.680;23.260;2023-01-05T14:42:03;94786.41;;;12.59;70.48
12785;BME280;6456;42.680;23.260;2023-01-05T14:44:42;94773.56;;;12.45;70.04
12785;BME280;6456;42.680;23.260;2023-01-05T14:47:09;94711.03;;;12.09;70.40
12785;BME280;6456;42.680;23.260;2023-01-05T14:49:38;94759.28;;;12.34;70.42
12785;BME280;6456;42.680;23.260;2023-01-05T14:52:14;94748.28;;;12.19;70.30
12785;BME280;6456;42.680;23.260;2023-01-05T14:55:18;94791.22;;;12.44;70.43
12785;BME280;6456;42.680;23.260;2023-01-05T14:57:50;94785.22;;;12.37;70.53
12785;BME280;6456;42.680;23.260;2023-01-05T15:00:22;94735.94;;;11.95;70.93
12785;BME280;6456;42.680;23.260;2023-01-05T15:03:02;94799.44;;;12.36;71.35
12785;BME280;6456;42.680;23.260;2023-01-05T15:05:33;94800.13;;;12.25;71.85
12785;BME280;6456;42.680;23.260;2023-01-05T15:08:21;94699.25;;;11.44;72.67
12785;BME280;6456;42.680;23.260;2023-01-05T15:11:05;94802.31;;;12.10;73.20
12785;BME280;6456;42.680;23.260;2023-01-05T15:14:10;94794.84;;;12.07;73.94
12785;BME280;6456;42.680;23.260;2023-01-05T15:20:34;94746.31;;;11.40;78.15
12785;BME280;6456;42.680;23.260;2023-01-05T15:23:29;94777.00;;;11.53;79.49
12785;BME280;6456;42.680;23.260;2023-01-05T15:26:09;94793.47;;;11.48;81.07
12785;BME280;6456;42.680;23.260;2023-01-05T15:31:39;94769.25;;;11.33;81.14
12785;BME280;6456;42.680;23.260;2023-01-05T15:34:22;94766.28;;;11.23;81.84
12785;BME280;6456;42.680;23.260;2023-01-05T15:36:54;94822.03;;;11.51;81.69
12785;BME280;6456;42.680;23.260;2023-01-05T15:39:27;94814.31;;;11.50;81.71
12785;BME280;6456;42.680;23.260;2023-01-05T15:41:57;94739.69;;;11.00;81.89
12785;BME280;6456;42.680;23.260;2023-01-05T15:44:30;94795.84;;;11.25;82.17
12785;BME280;6456;42.680;23.260;2023-01-05T15:46:57;94752.66;;;11.02;82.08
12785;BME280;6456;42.680;23.260;2023-01-05T15:49:29;94804.78;;;11.24;82.69
12785;BME280;6456;42.680;23.260;2023-01-05T15:51:56;94791.50;;;11.06;83.23
12785;BME280;6456;42.680;23.260;2023-01-05T15:54:27;94805.63;;;11.18;82.85
12785;BME280;6456;42.680;23.260;2023-01-05T15:56:54;94700.50;;;10.48;82.86
12785;BME280;6456;42.680;23.260;2023-01-05T15:59:29;94795.94;;;11.12;83.47
12785;BME280;6456;42.680;23.260;2023-01-05T16:01:57;94795.13;;;11.12;84.52
12785;BME280;6456;42.680;23.260;2023-01-05T16:04:24;94790.31;;;11.02;85.28
12785;BME280;6456;42.680;23.260;2023-01-05T16:06:59;94785.13;;;10.89;86.06
12785;BME280;6456;42.680;23.260;2023-01-05T16:09:31;94710.00;;;10.49;86.09
12785;BME280;6456;42.680;23.260;2023-01-05T16:12:04;94676.16;;;10.14;86.20
12785;BME280;6456;42.680;23.260;2023-01-05T16:14:34;94700.41;;;10.23;86.71
12785;BME280;6456;42.680;23.260;2023-01-05T16:17:06;94689.97;;;9.77;89.05
12785;BME280;6456;42.680;23.260;2023-01-05T16:19:40;94786.50;;;10.47;87.70
12785;BME280;6456;42.680;23.260;2023-01-05T16:22:12;94782.25;;;10.40;87.76
12785;BME280;6456;42.680;23.260;2023-01-05T16:24:51;94744.31;;;10.09;88.91
12785;BME280;6456;42.680;23.260;2023-01-05T16:27:20;94765.56;;;10.14;89.10
12785;BME280;6456;42.680;23.260;2023-01-05T16:29:47;94797.47;;;10.31;89.46
12785;BME280;6456;42.680;23.260;2023-01-05T16:32:30;94799.31;;;10.24;89.53
12785;BME280;6456;42.680;23.260;2023-01-05T16:35:23;94809.41;;;10.34;89.36
12785;BME280;6456;42.680;23.260;2023-01-05T16:38:16;94794.25;;;10.22;89.48